Time;durP1;ratioP1;P1;durP2;ratioP2;P2;SDS_P1;SDS_P2;PMS_P1;PMS_P2;Temp;Humidity;BMP_temperature;BMP_pressure;BME280_temperature;BME280_humidity;BME280_pressure;Samples;Min_cycle;Max_cycle;Signal;HPM_P1;HPM_P2
2021/05/19 00:02:08;;;;;;;13.02;3.65;;;10.60;80.80;;;;;;5023838;28;20494;-76
2021/05/19 00:04:33;;;;;;;12.50;4.03;;;10.50;81.00;;;;;;5023292;28;20473;-75
2021/05/19 00:06:59;;;;;;;17.50;4.80;;;10.50;81.00;;;;;;5029116;28;20060;-77
2021/05/19 00:09:25;;;;;;;16.77;4.90;;;10.50;81.10;;;;;;5024841;28;20602;-77
2021/05/19 00:11:50;;;;;;;12.40;4.25;;;10.40;81.10;;;;;;5022526;28;20038;-75
2021/05/19 00:14:18;;;;;;;14.13;4.65;;;10.40;81.20;;;;;;5018039;28;20042;-75
2021/05/19 00:16:45;;;;;;;16.20;4.60;;;10.40;81.10;;;;;;5022816;28;20599;-76
2021/05/19 00:19:11;;;;;;;13.63;4.28;;;10.40;81.10;;;;;;5030590;28;20052;-76
2021/05/19 00:21:37;;;;;;;16.83;5.13;;;10.40;81.40;;;;;;5024736;28;20034;-77
2021/05/19 00:24:07;;;;;;;15.00;5.20;;;10.30;81.30;;;;;;5024474;28;20485;-76
2021/05/19 00:26:33;;;;;;;12.95;5.80;;;10.30;81.20;;;;;;5035178;28;20386;-76
2021/05/19 00:28:59;;;;;;;12.20;5.10;;;10.30;81.20;;;;;;5024262;28;20374;-77
2021/05/19 00:31:30;;;;;;;10.63;4.65;;;10.20;81.40;;;;;;5025947;28;20051;-81
2021/05/19 00:33:57;;;;;;;16.42;6.10;;;10.10;81.60;;;;;;5019010;28;20069;-76
2021/05/19 00:36:23;;;;;;;13.88;4.90;;;10.20;81.50;;;;;;5023939;28;20488;-77
2021/05/19 00:38:49;;;;;;;12.90;5.03;;;10.10;81.30;;;;;;5026315;28;20044;-76
2021/05/19 00:41:15;;;;;;;15.73;5.20;;;10.10;81.60;;;;;;5017442;28;20030;-77
2021/05/19 00:43:41;;;;;;;11.23;4.47;;;10.10;81.80;;;;;;5022934;28;20034;-78
2021/05/19 00:46:08;;;;;;;15.63;5.93;;;10.10;81.80;;;;;;5039079;28;20079;-78
2021/05/19 00:48:35;;;;;;;12.98;4.50;;;10.00;81.80;;;;;;5028198;28;20115;-77
2021/05/19 00:51:01;;;;;;;11.82;4.50;;;10.00;82.20;;;;;;5012873;28;20034;-76
2021/05/19 00:53:27;;;;;;;12.90;4.05;;;10.00;82.30;;;;;;5026727;28;20033;-75
2021/05/19 00:55:53;;;;;;;11.10;4.20;;;9.90;82.10;;;;;;5026362;28;20059;-76
2021/05/19 00:58:19;;;;;;;15.82;4.63;;;10.00;82.30;;;;;;5017588;28;20046;-76
2021/05/19 01:00:45;;;;;;;15.93;4.65;;;10.00;82.30;;;;;;5024345;28;20046;-80
2021/05/19 01:03:11;;;;;;;13.18;4.65;;;9.90;82.40;;;;;;5017041;28;20038;-75
2021/05/19 01:11:10;;;;;;;15.50;4.72;;;9.90;82.50;;;;;;5017180;28;20056;-77
2021/05/19 01:13:38;;;;;;;17.20;5.47;;;9.90;82.70;;;;;;5019359;28;20034;-75
2021/05/19 01:16:05;;;;;;;12.95;5.22;;;9.90;82.50;;;;;;5029106;28;20033;-76
2021/05/19 01:18:30;;;;;;;13.02;3.97;;;10.00;82.60;;;;;;5015287;28;20041;-77
2021/05/19 01:20:56;;;;;;;12.98;4.57;;;10.00;82.70;;;;;;5020287;28;20058;-78
2021/05/19 01:23:22;;;;;;;11.73;4.22;;;10.00;82.60;;;;;;5018120;28;20153;-76
2021/05/19 01:25:48;;;;;;;15.15;4.57;;;10.00;82.60;;;;;;5043714;28;20461;-76
2021/05/19 01:28:14;;;;;;;12.98;5.00;;;10.10;82.60;;;;;;5025303;28;20029;-77
2021/05/19 01:30:41;;;;;;;17.83;4.78;;;10.10;82.60;;;;;;5029733;28;20087;-78
2021/05/19 01:33:07;;;;;;;16.33;5.30;;;10.10;82.60;;;;;;5025149;28;20040;-77
2021/05/19 01:35:33;;;;;;;19.02;5.28;;;10.10;82.70;;;;;;5026117;28;20037;-77
2021/05/19 01:37:59;;;;;;;13.38;5.07;;;10.20;82.60;;;;;;5022428;28;20120;-76
2021/05/19 01:40:25;;;;;;;12.30;4.80;;;10.20;82.60;;;;;;5020570;28;20172;-77
2021/05/19 01:42:51;;;;;;;15.48;4.40;;;10.30;82.40;;;;;;5016787;28;20045;-77
2021/05/19 01:45:25;;;;;;;12.65;4.93;;;10.30;82.20;;;;;;5026297;28;20030;-80
2021/05/19 01:47:53;;;;;;;16.67;4.85;;;10.30;82.30;;;;;;5028677;28;20029;-79
2021/05/19 01:50:32;;;;;;;15.95;4.60;;;10.40;82.20;;;;;;5021858;28;20029;-77
2021/05/19 01:53:00;;;;;;;14.90;4.93;;;10.40;82.10;;;;;;5035417;28;20539;-76
2021/05/19 01:55:27;;;;;;;13.15;4.57;;;10.30;82.10;;;;;;5030194;28;20072;-78
2021/05/19 01:57:54;;;;;;;10.77;4.30;;;10.30;82.20;;;;;;5030701;28;20057;-81
2021/05/19 02:00:23;;;;;;;12.18;4.82;;;10.20;82.40;;;;;;5028809;28;20532;-76
2021/05/19 02:02:56;;;;;;;14.00;4.55;;;10.20;82.60;;;;;;5015831;28;20053;-77
2021/05/19 02:05:24;;;;;;;15.38;5.07;;;10.10;82.80;;;;;;5025037;28;20050;-78
2021/05/19 02:07:50;;;;;;;14.73;5.32;;;10.10;83.10;;;;;;5026640;28;20410;-76
2021/05/19 02:10:15;;;;;;;14.43;5.07;;;10.10;83.40;;;;;;5024570;28;20032;-79
2021/05/19 02:12:41;;;;;;;14.80;4.43;;;10.10;83.40;;;;;;5024927;28;20037;-76
2021/05/19 02:15:08;;;;;;;13.85;4.80;;;10.10;83.40;;;;;;5029041;28;20037;-76
2021/05/19 02:17:33;;;;;;;14.80;4.97;;;10.10;83.50;;;;;;5016786;28;20025;-76
2021/05/19 02:20:19;;;;;;;12.32;4.88;;;10.00;83.60;;;;;;5025956;28;20120;-76
2021/05/19 02:22:46;;;;;;;11.00;4.55;;;10.00;84.00;;;;;;5019988;28;20068;-76
2021/05/19 02:25:13;;;;;;;14.45;5.22;;;10.00;84.00;;;;;;5031010;28;20423;-77
2021/05/19 02:27:39;;;;;;;15.98;5.60;;;10.00;84.20;;;;;;5021024;28;20041;-76
2021/05/19 02:30:07;;;;;;;13.82;4.70;;;10.00;84.30;;;;;;5015844;28;20034;-79
2021/05/19 02:32:33;;;;;;;13.70;4.82;;;10.00;84.30;;;;;;5004751;28;20033;-80
2021/05/19 02:35:00;;;;;;;13.43;5.10;;;10.10;84.20;;;;;;5025806;28;20038;-76
2021/05/19 02:37:25;;;;;;;13.50;4.88;;;10.00;84.30;;;;;;5026631;28;20116;-76
2021/05/19 02:39:51;;;;;;;16.98;4.78;;;10.10;84.50;;;;;;5025686;28;20108;-75
2021/05/19 02:42:17;;;;;;;12.85;5.18;;;10.10;84.50;;;;;;5024083;28;20037;-76
2021/05/19 02:44:42;;;;;;;17.83;5.00;;;10.20;84.50;;;;;;5027632;28;20034;-78
2021/05/19 02:47:08;;;;;;;14.38;4.88;;;10.20;84.50;;;;;;5022848;28;21357;-77
2021/05/19 02:49:34;;;;;;;14.68;4.80;;;10.30;84.50;;;;;;5027245;28;20026;-75
2021/05/19 02:52:00;;;;;;;14.85;4.85;;;10.30;84.40;;;;;;5023174;28;20078;-76
2021/05/19 02:54:25;;;;;;;16.15;5.30;;;10.40;84.30;;;;;;5017227;28;20166;-76
2021/05/19 02:56:51;;;;;;;13.05;4.38;;;10.40;84.20;;;;;;5019090;28;20041;-77
2021/05/19 02:59:18;;;;;;;15.40;4.75;;;10.40;84.20;;;;;;5005126;28;20466;-77
2021/05/19 03:01:45;;;;;;;14.43;5.38;;;10.50;84.30;;;;;;5038864;28;20432;-76
2021/05/19 03:04:10;;;;;;;11.45;4.65;;;10.50;84.30;;;;;;5029690;28;20069;-80
2021/05/19 03:06:36;;;;;;;17.98;4.82;;;10.50;84.00;;;;;;5018839;28;20069;-76
2021/05/19 03:09:04;;;;;;;17.23;5.63;;;10.50;84.00;;;;;;5018354;28;20045;-76
2021/05/19 03:11:30;;;;;;;15.95;4.90;;;10.50;83.90;;;;;;5012192;28;20041;-75
2021/05/19 03:13:55;;;;;;;18.50;5.90;;;10.60;84.10;;;;;;5020095;28;20173;-76
2021/05/19 03:16:21;;;;;;;12.07;5.70;;;10.60;84.10;;;;;;5020119;28;20484;-76
2021/05/19 03:18:46;;;;;;;14.15;5.28;;;10.60;83.90;;;;;;5004094;28;20037;-75
2021/05/19 03:21:12;;;;;;;16.02;5.65;;;10.60;83.70;;;;;;5012067;28;20404;-76
2021/05/19 03:23:38;;;;;;;14.05;5.90;;;10.60;83.50;;;;;;5021595;28;20065;-76
2021/05/19 03:26:04;;;;;;;14.00;5.63;;;10.60;83.60;;;;;;5027694;28;20034;-76
2021/05/19 03:28:29;;;;;;;13.63;5.10;;;10.60;83.50;;;;;;5020792;28;20389;-76
2021/05/19 03:30:56;;;;;;;19.77;6.13;;;10.60;83.50;;;;;;5013939;28;20044;-75
2021/05/19 03:33:22;;;;;;;14.23;5.10;;;10.60;83.50;;;;;;5027500;28;20143;-76
2021/05/19 03:35:48;;;;;;;13.82;4.85;;;10.60;83.60;;;;;;5025330;28;20463;-77
2021/05/19 03:38:14;;;;;;;14.10;5.38;;;10.50;83.50;;;;;;5010998;28;20091;-77
2021/05/19 03:40:40;;;;;;;16.25;4.88;;;10.50;83.60;;;;;;5033125;28;20030;-78
2021/05/19 03:43:05;;;;;;;14.23;5.20;;;10.50;83.60;;;;;;5030908;28;20187;-77
2021/05/19 03:45:31;;;;;;;11.45;4.72;;;10.50;83.80;;;;;;5029523;28;20427;-77
2021/05/19 03:47:58;;;;;;;18.50;4.78;;;10.50;83.90;;;;;;5009848;28;20037;-76
2021/05/19 03:50:28;;;;;;;11.45;5.32;;;10.50;83.90;;;;;;5021158;28;20666;-81
2021/05/19 03:52:54;;;;;;;13.10;4.80;;;10.50;84.10;;;;;;5018450;28;20401;-77
2021/05/19 03:55:20;;;;;;;16.55;5.25;;;10.50;84.10;;;;;;5023415;28;20395;-76
2021/05/19 03:57:46;;;;;;;13.88;5.28;;;10.60;84.00;;;;;;5009622;28;20473;-76
2021/05/19 04:00:15;;;;;;;10.85;4.93;;;10.60;83.90;;;;;;5030443;28;20033;-76
2021/05/19 04:02:41;;;;;;;17.38;5.90;;;10.60;83.80;;;;;;5019404;28;20424;-77
2021/05/19 04:05:07;;;;;;;13.02;4.97;;;10.70;83.70;;;;;;5021959;28;20042;-80
2021/05/19 04:07:32;;;;;;;14.32;5.95;;;10.60;83.60;;;;;;5020365;28;20061;-77
2021/05/19 04:09:58;;;;;;;13.80;5.40;;;10.60;83.30;;;;;;5017567;28;20077;-76
2021/05/19 04:12:24;;;;;;;14.63;5.03;;;10.60;83.10;;;;;;5020914;28;20080;-77
2021/05/19 04:14:49;;;;;;;16.95;5.38;;;10.50;83.20;;;;;;5027771;28;20453;-76
2021/05/19 04:17:15;;;;;;;13.75;5.05;;;10.60;83.00;;;;;;5029463;28;20450;-77
2021/05/19 04:19:41;;;;;;;12.65;4.57;;;10.50;83.00;;;;;;5030812;28;20048;-78
2021/05/19 04:22:07;;;;;;;13.52;5.22;;;10.50;83.10;;;;;;5026892;28;20037;-79
2021/05/19 04:24:33;;;;;;;17.42;5.80;;;10.50;83.00;;;;;;5025389;28;20053;-79
2021/05/19 04:26:59;;;;;;;14.02;4.13;;;10.50;83.00;;;;;;5025473;28;20029;-77
2021/05/19 04:29:25;;;;;;;12.68;5.00;;;10.50;82.70;;;;;;5028391;28;20120;-78
2021/05/19 04:31:51;;;;;;;16.98;5.70;;;10.50;82.80;;;;;;5026851;28;20366;-76
2021/05/19 04:34:18;;;;;;;14.30;5.70;;;10.50;82.70;;;;;;5020205;28;20034;-77
2021/05/19 04:36:44;;;;;;;14.23;6.55;;;10.50;82.60;;;;;;5021948;28;20046;-81
2021/05/19 04:39:09;;;;;;;16.27;5.65;;;10.50;82.60;;;;;;5021752;28;20030;-77
2021/05/19 04:41:35;;;;;;;12.43;4.95;;;10.50;82.60;;;;;;5017555;28;20037;-79
2021/05/19 04:44:01;;;;;;;15.10;5.78;;;10.50;82.60;;;;;;5016774;28;20548;-79
2021/05/19 04:46:26;;;;;;;13.70;5.88;;;10.50;82.70;;;;;;5009438;28;20528;-80
2021/05/19 04:48:55;;;;;;;14.45;6.63;;;10.60;82.60;;;;;;5018774;28;20030;-79
2021/05/19 04:51:20;;;;;;;12.30;6.07;;;10.60;82.20;;;;;;5028742;28;20025;-79
2021/05/19 04:53:46;;;;;;;18.05;6.38;;;10.60;82.40;;;;;;5014662;28;20532;-79
2021/05/19 04:56:12;;;;;;;15.50;5.70;;;10.60;82.40;;;;;;5006558;28;20129;-78
2021/05/19 04:58:38;;;;;;;11.38;5.43;;;10.70;82.50;;;;;;5003490;28;20486;-78
2021/05/19 05:01:03;;;;;;;15.70;6.28;;;10.80;82.30;;;;;;4997597;28;20116;-79
2021/05/19 05:03:29;;;;;;;15.77;6.18;;;10.80;81.90;;;;;;5005149;28;20890;-77
2021/05/19 05:05:56;;;;;;;18.00;6.10;;;10.90;81.90;;;;;;5004308;28;20093;-79
2021/05/19 05:08:22;;;;;;;13.15;5.97;;;10.90;81.40;;;;;;5005514;28;20046;-80
2021/05/19 05:10:49;;;;;;;14.65;6.47;;;11.00;81.20;;;;;;5006021;28;20057;-79
2021/05/19 05:13:14;;;;;;;13.95;5.75;;;11.10;81.00;;;;;;5001655;28;20042;-78
2021/05/19 05:15:40;;;;;;;13.30;4.70;;;11.10;80.80;;;;;;5002936;28;20699;-79
2021/05/19 05:18:06;;;;;;;16.58;5.40;;;11.20;80.40;;;;;;4999767;28;20471;-77
2021/05/19 05:20:31;;;;;;;11.35;4.63;;;11.30;80.20;;;;;;5009717;28;20038;-78
2021/05/19 05:22:57;;;;;;;11.45;4.93;;;11.40;79.90;;;;;;5018600;28;20443;-78
2021/05/19 05:25:23;;;;;;;13.77;4.72;;;11.40;80.00;;;;;;5027616;28;20041;-78
2021/05/19 05:27:49;;;;;;;16.00;4.90;;;11.40;79.70;;;;;;5023008;28;20095;-76
2021/05/19 05:30:16;;;;;;;14.48;5.43;;;11.40;79.90;;;;;;5028648;28;20033;-79
2021/05/19 05:32:42;;;;;;;11.98;4.47;;;11.50;79.50;;;;;;5025882;28;20041;-79
2021/05/19 05:35:11;;;;;;;14.73;5.03;;;11.40;79.60;;;;;;5026393;28;20576;-73
2021/05/19 05:37:37;;;;;;;18.15;6.00;;;11.50;79.60;;;;;;5029444;28;20054;-72
2021/05/19 05:40:05;;;;;;;12.60;4.88;;;11.40;79.80;;;;;;5013300;28;20051;-74
2021/05/19 05:42:31;;;;;;;15.93;4.88;;;11.50;79.80;;;;;;5023461;28;20022;-74
2021/05/19 05:44:57;;;;;;;14.65;5.20;;;11.50;79.80;;;;;;5017141;28;20038;-73
2021/05/19 05:47:23;;;;;;;11.13;4.55;;;11.50;79.80;;;;;;5015755;28;20041;-73
2021/05/19 05:49:52;;;;;;;15.00;5.38;;;11.50;80.00;;;;;;5022760;28;20045;-76
2021/05/19 05:52:18;;;;;;;16.33;5.63;;;11.60;79.70;;;;;;5021560;28;20033;-73
2021/05/19 05:54:44;;;;;;;14.30;4.90;;;11.60;79.80;;;;;;5020828;28;20103;-73
2021/05/19 05:57:10;;;;;;;13.63;4.88;;;11.60;79.80;;;;;;5022539;28;20837;-73
2021/05/19 05:59:36;;;;;;;12.55;4.45;;;11.60;79.90;;;;;;5024525;28;20078;-75
2021/05/19 06:02:02;;;;;;;13.85;4.88;;;11.60;79.90;;;;;;5025417;28;20041;-73
2021/05/19 06:04:28;;;;;;;14.40;4.88;;;11.70;79.70;;;;;;5024244;28;20041;-73
2021/05/19 06:06:53;;;;;;;12.95;4.82;;;11.70;80.10;;;;;;5017225;28;20488;-74
2021/05/19 06:09:19;;;;;;;15.30;4.80;;;12.00;79.80;;;;;;5027658;28;20048;-72
2021/05/19 06:11:45;;;;;;;15.27;5.03;;;12.40;78.50;;;;;;5019697;28;20432;-75
2021/05/19 06:14:10;;;;;;;12.65;4.88;;;12.60;77.40;;;;;;5016468;28;20469;-75
2021/05/19 06:16:36;;;;;;;10.15;3.90;;;13.10;76.40;;;;;;5022565;28;20540;-74
2021/05/19 06:19:03;;;;;;;12.68;4.68;;;13.50;75.00;;;;;;5016851;28;20033;-73
2021/05/19 06:21:28;;;;;;;11.70;4.38;;;13.90;73.70;;;;;;5023179;28;20064;-76
2021/05/19 06:23:54;;;;;;;14.10;4.07;;;14.20;72.80;;;;;;5025507;28;20033;-73
2021/05/19 06:26:20;;;;;;;11.73;3.95;;;14.20;72.00;;;;;;5036441;28;20115;-72
2021/05/19 06:28:45;;;;;;;10.73;3.85;;;14.20;71.60;;;;;;5013872;28;20045;-72
2021/05/19 06:31:11;;;;;;;10.68;3.35;;;14.10;71.50;;;;;;5000933;28;20023;-72
2021/05/19 06:33:37;;;;;;;9.35;3.00;;;14.00;71.60;;;;;;5003173;28;20083;-72
2021/05/19 06:36:03;;;;;;;9.45;2.35;;;13.80;71.40;;;;;;4999689;28;20030;-72
2021/05/19 06:38:28;;;;;;;10.38;2.42;;;13.70;71.70;;;;;;5012629;28;20057;-72
2021/05/19 06:40:55;;;;;;;10.05;2.58;;;13.50;72.20;;;;;;5034604;28;20373;-73
2021/05/19 06:43:21;;;;;;;7.88;2.78;;;13.50;72.60;;;;;;5017917;28;20480;-71
2021/05/19 06:45:47;;;;;;;8.68;2.50;;;13.40;72.80;;;;;;5017109;28;20060;-71
2021/05/19 06:48:12;;;;;;;7.25;2.22;;;13.40;71.70;;;;;;5023475;28;20083;-71
2021/05/19 06:50:38;;;;;;;8.65;2.17;;;13.30;72.50;;;;;;5016307;28;20064;-72
2021/05/19 06:53:04;;;;;;;9.40;2.63;;;13.30;72.60;;;;;;5008803;28;20121;-72
2021/05/19 06:55:30;;;;;;;7.35;2.88;;;13.40;72.20;;;;;;5023515;28;20037;-74
2021/05/19 06:57:55;;;;;;;8.98;2.25;;;13.50;71.60;;;;;;5004752;28;20050;-72
2021/05/19 07:00:22;;;;;;;9.85;2.50;;;13.60;70.80;;;;;;4998229;28;20046;-72
2021/05/19 07:02:48;;;;;;;10.02;2.38;;;13.70;71.30;;;;;;5020388;28;20045;-71
2021/05/19 07:05:14;;;;;;;7.15;2.38;;;13.90;70.00;;;;;;5016869;28;20504;-72
2021/05/19 07:07:39;;;;;;;7.32;2.58;;;13.90;70.80;;;;;;5013489;28;20083;-73
2021/05/19 07:10:07;;;;;;;9.43;2.20;;;13.90;70.30;;;;;;5017668;28;20386;-72
2021/05/19 07:12:33;;;;;;;6.65;2.53;;;13.90;69.80;;;;;;5019848;28;20037;-71
2021/05/19 07:15:02;;;;;;;8.18;2.20;;;14.00;70.00;;;;;;5022157;28;20033;-73
2021/05/19 07:17:28;;;;;;;7.07;1.90;;;14.10;69.20;;;;;;5009673;28;20157;-72
2021/05/19 07:19:53;;;;;;;3.78;1.52;;;14.10;68.60;;;;;;5014485;28;20128;-72
2021/05/19 07:22:19;;;;;;;6.88;1.90;;;14.10;68.30;;;;;;5013678;28;20044;-73
2021/05/19 07:24:50;;;;;;;6.72;2.20;;;14.40;67.90;;;;;;5019931;28;20048;-73
2021/05/19 07:27:15;;;;;;;4.07;1.80;;;14.60;66.50;;;;;;5015205;28;20034;-72
2021/05/19 07:29:41;;;;;;;6.95;1.80;;;14.70;66.00;;;;;;5012779;28;20034;-74
2021/05/19 07:32:07;;;;;;;5.15;1.60;;;14.70;66.70;;;;;;5016703;28;20415;-72
2021/05/19 07:34:33;;;;;;;6.18;2.03;;;15.00;65.10;;;;;;5024555;28;20465;-72
2021/05/19 07:36:58;;;;;;;5.75;1.73;;;15.20;64.90;;;;;;5000910;28;20117;-72
2021/05/19 07:39:25;;;;;;;4.82;1.60;;;15.50;64.90;;;;;;5011013;28;20549;-73
2021/05/19 07:41:50;;;;;;;3.85;1.20;;;15.70;63.00;;;;;;5017642;28;20040;-72
2021/05/19 07:44:16;;;;;;;2.35;1.30;;;15.60;62.10;;;;;;5003844;28;20038;-72
2021/05/19 07:46:41;;;;;;;3.65;1.20;;;15.10;63.50;;;;;;5008884;28;20046;-72
2021/05/19 07:49:07;;;;;;;4.07;1.40;;;15.00;63.40;;;;;;5008170;28;20117;-72
2021/05/19 07:51:34;;;;;;;4.32;1.05;;;15.00;65.10;;;;;;5013152;28;20042;-72
2021/05/19 07:54:00;;;;;;;3.30;1.23;;;14.80;65.40;;;;;;5029412;28;20109;-72
2021/05/19 07:59:27;;;;;;;3.10;1.05;;;14.60;69.20;;;;;;5009753;28;20045;-73
2021/05/19 08:02:08;;;;;;;3.17;1.25;;;14.10;71.50;;;;;;5010459;28;20409;-73
2021/05/19 08:04:35;;;;;;;4.47;1.33;;;14.00;72.90;;;;;;5021882;28;20049;-72
2021/05/19 08:07:02;;;;;;;1.80;1.10;;;13.90;72.10;;;;;;5029926;28;20091;-72
2021/05/19 08:09:29;;;;;;;4.25;1.23;;;13.80;72.80;;;;;;5001996;28;20046;-72
2021/05/19 08:11:55;;;;;;;3.85;1.38;;;13.80;74.00;;;;;;5009623;28;20034;-73
2021/05/19 08:14:21;;;;;;;3.95;1.77;;;13.70;74.40;;;;;;5004082;28;20045;-73
2021/05/19 08:16:47;;;;;;;3.85;1.40;;;13.70;74.80;;;;;;5028032;28;20037;-71
2021/05/19 08:19:13;;;;;;;4.63;1.45;;;13.80;73.90;;;;;;5019806;28;20068;-72
2021/05/19 08:21:40;;;;;;;4.90;1.50;;;13.90;74.10;;;;;;5022882;28;20045;-73
2021/05/19 08:24:06;;;;;;;4.15;1.50;;;13.90;71.80;;;;;;5025759;28;20081;-72
2021/05/19 08:26:32;;;;;;;7.28;2.33;;;13.90;73.00;;;;;;5027174;28;20025;-71
2021/05/19 08:28:58;;;;;;;7.40;2.72;;;13.90;73.30;;;;;;5028507;28;20068;-71
2021/05/19 08:31:24;;;;;;;3.78;1.90;;;14.00;72.90;;;;;;5029730;28;20029;-71
2021/05/19 08:33:50;;;;;;;5.20;2.05;;;14.10;71.30;;;;;;5027459;28;20040;-73
2021/05/19 08:36:16;;;;;;;5.20;1.73;;;14.10;70.70;;;;;;5009493;28;20030;-72
2021/05/19 08:38:43;;;;;;;5.45;1.70;;;14.20;70.40;;;;;;4994745;28;20030;-71
2021/05/19 08:41:09;;;;;;;4.68;1.98;;;14.20;70.20;;;;;;5014130;28;20029;-72
2021/05/19 08:43:35;;;;;;;8.32;1.73;;;14.20;70.00;;;;;;5021730;28;20033;-73
2021/05/19 08:46:08;;;;;;;4.32;1.75;;;14.20;70.00;;;;;;4999658;28;20026;-74
2021/05/19 08:48:35;;;;;;;4.20;1.63;;;14.00;69.70;;;;;;5010153;28;20041;-73
2021/05/19 08:51:01;;;;;;;5.88;1.80;;;14.10;69.70;;;;;;5023943;28;20034;-73
2021/05/19 08:53:27;;;;;;;5.07;1.83;;;14.20;70.00;;;;;;5000812;28;20042;-72
2021/05/19 08:55:54;;;;;;;5.13;2.17;;;14.30;70.30;;;;;;5014876;28;20484;-73
2021/05/19 08:58:20;;;;;;;5.50;1.92;;;14.20;69.70;;;;;;5010730;28;20049;-73
2021/05/19 09:00:46;;;;;;;5.15;1.83;;;14.10;70.90;;;;;;5023788;28;20114;-72
2021/05/19 09:03:16;;;;;;;5.43;2.00;;;14.10;71.90;;;;;;5026088;28;20080;-72
2021/05/19 09:05:44;;;;;;;5.57;2.13;;;14.30;71.90;;;;;;5010142;28;20029;-73
2021/05/19 09:08:14;;;;;;;7.43;2.63;;;14.30;71.60;;;;;;5004306;28;20496;-73
2021/05/19 09:10:41;;;;;;;5.55;2.40;;;14.20;71.80;;;;;;5000165;28;20035;-72
2021/05/19 09:13:27;;;;;;;7.38;2.50;;;14.20;73.20;;;;;;5012515;28;22230;-74
2021/05/19 09:15:53;;;;;;;8.02;3.00;;;14.60;74.10;;;;;;5018819;28;20500;-73
2021/05/19 09:18:19;;;;;;;9.02;3.53;;;14.90;73.20;;;;;;5028530;28;20022;-73
2021/05/19 09:20:52;;;;;;;9.48;2.83;;;15.00;73.80;;;;;;5024454;28;20478;-72
2021/05/19 09:23:20;;;;;;;7.95;2.42;;;15.20;72.50;;;;;;5001930;28;20089;-74
2021/05/19 09:26:07;;;;;;;4.55;1.95;;;15.30;71.00;;;;;;5007644;28;20064;-74
2021/05/19 09:28:33;;;;;;;6.00;1.60;;;15.30;69.30;;;;;;5006690;28;20026;-73
2021/05/19 09:30:59;;;;;;;3.30;1.60;;;15.30;70.70;;;;;;5032754;28;20029;-73
2021/05/19 09:33:28;;;;;;;6.22;1.70;;;15.60;68.40;;;;;;5031135;28;20495;-75
2021/05/19 09:36:10;;;;;;;5.72;2.10;;;15.70;68.70;;;;;;5027349;28;20045;-74
2021/05/19 09:38:36;;;;;;;4.43;2.00;;;15.80;67.10;;;;;;5023243;28;20032;-74
2021/05/19 09:41:28;;;;;;;4.40;1.80;;;15.90;66.80;;;;;;5025100;28;20036;-75
2021/05/19 09:43:57;;;;;;;4.70;1.80;;;15.90;64.70;;;;;;5012607;28;20050;-77
2021/05/19 09:49:22;;;;;;;5.40;1.80;;;16.10;64.40;;;;;;5018532;28;20409;-72
2021/05/19 09:51:57;;;;;;;5.32;2.42;;;16.30;64.80;;;;;;5022924;28;20381;-74
2021/05/19 09:54:34;;;;;;;7.38;2.08;;;16.50;63.50;;;;;;5015968;28;20126;-75
2021/05/19 09:57:07;;;;;;;3.50;1.80;;;16.30;63.00;;;;;;4995464;28;20385;-79
2021/05/19 09:59:33;;;;;;;3.83;1.85;;;16.10;61.70;;;;;;5001676;28;20042;-75
2021/05/19 10:02:00;;;;;;;4.45;1.90;;;15.60;62.80;;;;;;5019862;28;20083;-73
2021/05/19 10:07:02;;;;;;;4.93;1.73;;;15.40;64.50;;;;;;5026123;28;20033;-74
2021/05/19 10:09:28;;;;;;;5.30;1.65;;;15.30;64.70;;;;;;5021349;28;20026;-73
2021/05/19 10:11:56;;;;;;;2.30;1.35;;;15.20;66.20;;;;;;5016057;28;20129;-76
2021/05/19 10:14:23;;;;;;;3.00;1.50;;;15.00;66.30;;;;;;5013114;28;20494;-73
2021/05/19 10:16:54;;;;;;;3.17;1.40;;;15.10;65.80;;;;;;5027064;28;20381;-74
2021/05/19 10:19:28;;;;;;;2.97;1.40;;;15.30;65.10;;;;;;5027491;28;20055;-73
2021/05/19 10:21:57;;;;;;;3.38;1.30;;;15.40;64.10;;;;;;5027146;28;20064;-72
2021/05/19 10:24:48;;;;;;;2.78;1.40;;;15.40;64.80;;;;;;5023510;28;20412;-74
2021/05/19 10:27:18;;;;;;;4.88;1.50;;;15.60;64.40;;;;;;5025204;28;20115;-73
2021/05/19 10:29:49;;;;;;;2.72;1.30;;;15.60;63.80;;;;;;5019635;28;20061;-74
2021/05/19 10:32:35;;;;;;;3.17;1.40;;;15.60;63.50;;;;;;4997325;28;20084;-73
2021/05/19 10:35:08;;;;;;;4.45;1.90;;;15.90;63.00;;;;;;4995939;28;20050;-73
2021/05/19 10:37:39;;;;;;;2.30;1.63;;;16.00;62.80;;;;;;5003472;28;20524;-73
2021/05/19 10:40:29;;;;;;;3.90;2.00;;;16.30;62.40;;;;;;4997182;28;20075;-72
2021/05/19 10:43:01;;;;;;;3.38;1.73;;;16.90;60.80;;;;;;5016014;28;20373;-78
2021/05/19 10:45:27;;;;;;;5.60;1.88;;;17.00;59.40;;;;;;5018204;28;20061;-72
2021/05/19 10:47:54;;;;;;;3.47;1.90;;;17.10;59.50;;;;;;5009332;28;20035;-73
2021/05/19 10:50:36;;;;;;;3.85;1.70;;;17.40;57.50;;;;;;5003580;28;20045;-73
2021/05/19 10:58:49;;;;;;;3.05;1.65;;;18.40;53.30;;;;;;5000889;28;20360;-72
2021/05/19 11:01:15;;;;;;;3.42;1.58;;;18.70;53.20;;;;;;4993056;28;20022;-72
2021/05/19 11:04:02;;;;;;;2.17;1.55;;;18.70;54.40;;;;;;4998990;28;20104;-72
2021/05/19 11:06:27;;;;;;;2.60;1.40;;;18.70;53.10;;;;;;4998832;28;20030;-73
2021/05/19 11:09:23;;;;;;;2.95;1.50;;;18.90;54.60;;;;;;4999264;28;20038;-72
2021/05/19 11:11:49;;;;;;;3.75;1.30;;;19.30;52.70;;;;;;5024807;28;20040;-73
2021/05/19 11:14:36;;;;;;;3.53;1.50;;;19.40;50.90;;;;;;5020513;28;20475;-76
2021/05/19 11:17:14;;;;;;;2.90;1.40;;;19.50;52.50;;;;;;5017967;28;20168;-73
2021/05/19 11:19:40;;;;;;;5.03;1.60;;;19.60;51.40;;;;;;5016529;28;20482;-73
2021/05/19 11:22:11;;;;;;;5.85;1.55;;;19.30;50.20;;;;;;5016034;28;20084;-73
2021/05/19 11:24:57;;;;;;;2.67;1.45;;;19.30;50.90;;;;;;5010653;28;20042;-77
2021/05/19 11:27:26;;;;;;;4.05;1.35;;;19.40;51.20;;;;;;5003102;28;20034;-73
2021/05/19 11:29:53;;;;;;;2.10;1.10;;;19.40;51.40;;;;;;5002652;28;20037;-74
2021/05/19 11:32:21;;;;;;;2.40;1.30;;;19.30;50.60;;;;;;5002135;28;20427;-74
2021/05/19 11:34:47;;;;;;;2.75;1.40;;;19.30;51.00;;;;;;5005223;28;20086;-75
2021/05/19 11:37:15;;;;;;;2.35;1.20;;;19.10;50.70;;;;;;5005815;28;20050;-73
2021/05/19 11:39:52;;;;;;;3.05;1.30;;;19.10;52.30;;;;;;4995855;28;20030;-80
2021/05/19 11:42:18;;;;;;;3.58;1.40;;;19.50;51.90;;;;;;4999151;28;20532;-75
2021/05/19 11:44:59;;;;;;;2.65;1.30;;;19.70;49.80;;;;;;5005892;28;20052;-75
2021/05/19 11:47:39;;;;;;;2.10;1.10;;;20.10;49.60;;;;;;5012330;28;20105;-74
2021/05/19 11:50:06;;;;;;;3.72;1.55;;;20.60;49.10;;;;;;5016874;28;20510;-75
2021/05/19 11:52:50;;;;;;;3.25;1.38;;;20.30;48.80;;;;;;5017030;28;20048;-74
2021/05/19 11:55:25;;;;;;;2.10;1.38;;;20.50;48.40;;;;;;5023693;28;20037;-73
2021/05/19 11:58:01;;;;;;;2.90;1.45;;;21.10;45.50;;;;;;5021110;28;20029;-75
2021/05/19 12:00:39;;;;;;;2.03;1.20;;;21.20;44.80;;;;;;5025613;28;20030;-74
2021/05/19 12:03:07;;;;;;;4.00;1.40;;;21.00;47.40;;;;;;5026451;28;20103;-74
2021/05/19 12:06:04;;;;;;;3.85;1.33;;;20.80;48.60;;;;;;5012652;28;20045;-73
2021/05/19 12:08:29;;;;;;;2.95;1.27;;;20.20;48.20;;;;;;5021548;28;20034;-75
2021/05/19 12:11:19;;;;;;;3.20;1.35;;;19.60;49.60;;;;;;5018802;28;20595;-74
2021/05/19 12:14:08;;;;;;;2.30;1.50;;;19.40;49.80;;;;;;5013820;28;20445;-73
2021/05/19 12:16:41;;;;;;;2.85;1.58;;;18.60;52.40;;;;;;5021462;28;20030;-72
2021/05/19 12:19:09;;;;;;;3.88;1.63;;;18.20;53.70;;;;;;5024944;28;20026;-74
2021/05/19 12:22:08;;;;;;;4.65;2.15;;;17.60;55.90;;;;;;5016910;28;20041;-73
2021/05/19 12:24:34;;;;;;;5.07;2.67;;;16.60;61.50;;;;;;5017493;28;20045;-74
2021/05/19 12:27:00;;;;;;;6.05;2.90;;;16.10;66.10;;;;;;5017384;28;20041;-75
2021/05/19 12:29:41;;;;;;;5.72;3.30;;;15.80;68.60;;;;;;4998650;28;20031;-72
2021/05/19 12:32:21;;;;;;;6.88;4.50;;;15.60;69.70;;;;;;5005127;28;20034;-73
2021/05/19 12:35:06;;;;;;;8.23;5.10;;;15.40;71.60;;;;;;5004799;28;20060;-74
2021/05/19 12:38:01;;;;;;;7.03;3.88;;;15.10;73.60;;;;;;5007763;28;20053;-73
2021/05/19 12:40:30;;;;;;;5.43;3.10;;;14.80;74.70;;;;;;5006688;28;20393;-74
2021/05/19 12:43:04;;;;;;;7.55;2.55;;;14.30;74.90;;;;;;5025351;28;20046;-73
2021/05/19 12:45:33;;;;;;;5.10;2.25;;;13.90;76.30;;;;;;5006191;28;20081;-73
2021/05/19 12:48:14;;;;;;;6.32;2.50;;;13.60;76.10;;;;;;5016601;28;20029;-73
2021/05/19 12:50:43;;;;;;;5.93;2.72;;;13.70;76.70;;;;;;5033200;28;20048;-73
2021/05/19 12:53:09;;;;;;;6.57;2.88;;;13.60;77.40;;;;;;5018069;28;20496;-72
2021/05/19 12:55:35;;;;;;;7.03;3.20;;;13.60;77.60;;;;;;5018690;28;20116;-73
2021/05/19 12:58:09;;;;;;;5.82;3.70;;;13.80;78.20;;;;;;5027177;28;20122;-76
2021/05/19 13:00:51;;;;;;;6.72;3.60;;;14.00;77.90;;;;;;5014478;28;20042;-73
2021/05/19 13:03:36;;;;;;;5.75;3.50;;;14.20;77.00;;;;;;4994632;28;20065;-74
2021/05/19 13:06:05;;;;;;;8.60;3.70;;;14.10;77.50;;;;;;5010026;28;20521;-74
2021/05/19 13:08:32;;;;;;;6.35;3.72;;;14.20;77.60;;;;;;5022937;28;20108;-73